Etusivu
METAR-TAF:

METAR-TAF

Lentoasemat :

Ventspils, Latvia

Leveyspiiri: 57-21-28N, Pituuspiiri: 021-32-39E, korkeus merenpinnasta: 6 m

Tämänhetkinen sää

Tämä raportti tehtiin 8 minuuttia sitten, kello 17.50 UTC
Tuuli 4 kn koillisesta
Lämpötila 3°C
Kosteus 100%
Ilmanpaine 997 hPa
Näkyvyys 10 km tai enemmän
Muutamia pilviä 1700 ft:n korkeudessa
Pilvistä 2300 ft:n korkeudessa

METAR: EVVA 191750Z AUTO 05004KT 9999 FEW017 OVC023 03/03 Q0997

Aika: 19:58 (17:58 UTC)


TAF: puuttuu

Säähavainnot ja -ennusteet yli 4000 lentoasemalta (METAR- ja TAF-raportit).

Käytössä olevat sääasemat on merkitty karttaan keltaisilla ja punaisilla pisteillä.

Aseta hiiri pisteen päälle nähdäksesi sääaseman nimen.

Klikkaa sitten nähdäksesi säähavainnot ja -ennusteet.

Kartan vaihtaminen: klikkaa mustalla rastilla varustettuja vihreitä pisteitä, niin voit zoomata sisään; viivalla varustettua vihreää pistettä, niin voit zoomata ulos tai vihreitä nuolia, niin pääset viereisille kartoille.


METAR-TAF: